sensor_id;sensor_type;location;lat;lon;timestamp;pressure;altitude;pressure_sealevel;temperature;humidity
58064;BME280;43851;55.856;37.186;2022-08-25T00:03:43;100441.81;;;16.94;78.05
58064;BME280;43851;55.856;37.186;2022-08-25T00:06:10;100443.25;;;16.97;77.64
58064;BME280;43851;55.856;37.186;2022-08-25T00:08:37;100439.41;;;16.86;78.13
58064;BME280;43851;55.856;37.186;2022-08-25T00:11:05;100443.19;;;16.72;78.94
58064;BME280;43851;55.856;37.186;2022-08-25T00:13:32;100441.09;;;16.81;78.72
58064;BME280;43851;55.856;37.186;2022-08-25T00:15:59;100442.34;;;16.78;78.92
58064;BME280;43851;55.856;37.186;2022-08-25T00:18:25;100448.78;;;16.70;79.18
58064;BME280;43851;55.856;37.186;2022-08-25T00:20:51;100446.78;;;16.59;79.78
58064;BME280;43851;55.856;37.186;2022-08-25T00:23:18;100442.41;;;16.65;79.28
58064;BME280;43851;55.856;37.186;2022-08-25T00:25:44;100449.31;;;16.54;80.38
58064;BME280;43851;55.856;37.186;2022-08-25T00:28:10;100442.69;;;16.56;80.30
58064;BME280;43851;55.856;37.186;2022-08-25T00:30:37;100440.22;;;16.55;80.33
58064;BME280;43851;55.856;37.186;2022-08-25T00:33:03;100437.06;;;16.65;79.61
58064;BME280;43851;55.856;37.186;2022-08-25T00:35:29;100433.94;;;16.68;78.93
58064;BME280;43851;55.856;37.186;2022-08-25T00:37:55;100439.28;;;16.74;77.91
58064;BME280;43851;55.856;37.186;2022-08-25T00:40:23;100441.16;;;16.67;79.70
58064;BME280;43851;55.856;37.186;2022-08-25T00:42:49;100429.34;;;16.50;80.53
58064;BME280;43851;55.856;37.186;2022-08-25T00:45:14;100441.88;;;16.56;80.35
58064;BME280;43851;55.856;37.186;2022-08-25T00:47:40;100436.56;;;16.49;80.20
58064;BME280;43851;55.856;37.186;2022-08-25T00:50:07;100426.75;;;16.36;80.87
58064;BME280;43851;55.856;37.186;2022-08-25T00:52:41;100429.00;;;16.39;81.15
58064;BME280;43851;55.856;37.186;2022-08-25T00:55:20;100436.59;;;16.42;80.93
58064;BME280;43851;55.856;37.186;2022-08-25T00:57:55;100439.25;;;16.42;81.11
58064;BME280;43851;55.856;37.186;2022-08-25T01:00:29;100440.97;;;16.37;81.20
58064;BME280;43851;55.856;37.186;2022-08-25T01:02:56;100435.88;;;16.29;81.50
58064;BME280;43851;55.856;37.186;2022-08-25T01:05:23;100433.78;;;16.31;80.85
58064;BME280;43851;55.856;37.186;2022-08-25T01:07:50;100423.78;;;16.19;81.00
58064;BME280;43851;55.856;37.186;2022-08-25T01:10:18;100437.38;;;16.18;82.05
58064;BME280;43851;55.856;37.186;2022-08-25T01:12:43;100436.28;;;16.26;81.95
58064;BME280;43851;55.856;37.186;2022-08-25T01:15:12;100436.09;;;16.27;81.31
58064;BME280;43851;55.856;37.186;2022-08-25T01:17:46;100432.41;;;16.21;81.92
58064;BME280;43851;55.856;37.186;2022-08-25T01:20:14;100428.28;;;16.19;81.71
58064;BME280;43851;55.856;37.186;2022-08-25T01:22:41;100430.09;;;16.25;81.25
58064;BME280;43851;55.856;37.186;2022-08-25T01:25:24;100433.41;;;16.20;81.68
58064;BME280;43851;55.856;37.186;2022-08-25T01:27:54;100432.03;;;16.11;82.15
58064;BME280;43851;55.856;37.186;2022-08-25T01:30:20;100439.41;;;16.16;82.09
58064;BME280;43851;55.856;37.186;2022-08-25T01:32:46;100436.38;;;16.05;82.79
58064;BME280;43851;55.856;37.186;2022-08-25T01:35:12;100433.16;;;15.90;83.74
58064;BME280;43851;55.856;37.186;2022-08-25T01:37:38;100427.97;;;16.02;82.92
58064;BME280;43851;55.856;37.186;2022-08-25T01:40:05;100431.72;;;15.94;82.95
58064;BME280;43851;55.856;37.186;2022-08-25T01:42:57;100429.63;;;15.96;83.59
58064;BME280;43851;55.856;37.186;2022-08-25T01:45:26;100423.91;;;15.93;82.81
58064;BME280;43851;55.856;37.186;2022-08-25T01:47:52;100431.88;;;15.99;82.90
58064;BME280;43851;55.856;37.186;2022-08-25T01:50:18;100433.31;;;16.02;82.62
58064;BME280;43851;55.856;37.186;2022-08-25T01:55:16;100429.81;;;16.01;82.38
58064;BME280;43851;55.856;37.186;2022-08-25T01:57:42;100432.47;;;16.01;82.58
58064;BME280;43851;55.856;37.186;2022-08-25T02:00:09;100436.63;;;15.97;82.84
58064;BME280;43851;55.856;37.186;2022-08-25T02:02:38;100439.69;;;16.01;82.58
58064;BME280;43851;55.856;37.186;2022-08-25T02:05:04;100444.25;;;15.94;83.16
58064;BME280;43851;55.856;37.186;2022-08-25T02:07:31;100435.81;;;15.90;82.75
58064;BME280;43851;55.856;37.186;2022-08-25T02:09:57;100426.97;;;15.96;82.52
58064;BME280;43851;55.856;37.186;2022-08-25T02:12:23;100438.31;;;15.85;83.29
58064;BME280;43851;55.856;37.186;2022-08-25T02:15:09;100443.50;;;15.80;83.48
58064;BME280;43851;55.856;37.186;2022-08-25T02:17:35;100436.25;;;15.87;83.04
58064;BME280;43851;55.856;37.186;2022-08-25T02:20:04;100445.28;;;15.86;83.52
58064;BME280;43851;55.856;37.186;2022-08-25T02:22:30;100442.44;;;15.81;83.28
58064;BME280;43851;55.856;37.186;2022-08-25T02:24:56;100446.56;;;15.83;83.51
58064;BME280;43851;55.856;37.186;2022-08-25T02:27:22;100426.16;;;15.89;82.78
58064;BME280;43851;55.856;37.186;2022-08-25T02:29:48;100432.47;;;16.01;82.47
58064;BME280;43851;55.856;37.186;2022-08-25T02:32:14;100444.66;;;15.91;82.93
58064;BME280;43851;55.856;37.186;2022-08-25T02:34:40;100433.22;;;15.77;83.37
58064;BME280;43851;55.856;37.186;2022-08-25T02:37:06;100428.88;;;15.82;83.50
58064;BME280;43851;55.856;37.186;2022-08-25T02:39:33;100447.34;;;15.91;82.91
58064;BME280;43851;55.856;37.186;2022-08-25T02:41:58;100418.13;;;15.89;82.51
58064;BME280;43851;55.856;37.186;2022-08-25T02:44:30;100429.47;;;15.91;82.93
58064;BME280;43851;55.856;37.186;2022-08-25T02:46:59;100429.22;;;15.99;82.23
58064;BME280;43851;55.856;37.186;2022-08-25T02:49:25;100430.66;;;15.95;82.67
58064;BME280;43851;55.856;37.186;2022-08-25T02:51:51;100425.09;;;15.97;82.58
58064;BME280;43851;55.856;37.186;2022-08-25T02:54:18;100415.47;;;15.89;82.68
58064;BME280;43851;55.856;37.186;2022-08-25T02:56:44;100413.41;;;15.91;82.51
58064;BME280;43851;55.856;37.186;2022-08-25T02:59:10;100422.81;;;16.07;82.33
58064;BME280;43851;55.856;37.186;2022-08-25T03:01:35;100431.31;;;16.29;81.47
58064;BME280;43851;55.856;37.186;2022-08-25T03:04:01;100423.28;;;16.61;80.02
58064;BME280;43851;55.856;37.186;2022-08-25T03:06:27;100430.66;;;16.98;78.56
58064;BME280;43851;55.856;37.186;2022-08-25T03:08:54;100428.03;;;17.16;77.75
58064;BME280;43851;55.856;37.186;2022-08-25T03:11:20;100431.22;;;17.50;76.38
58064;BME280;43851;55.856;37.186;2022-08-25T03:13:46;100427.88;;;17.73;75.45
58064;BME280;43851;55.856;37.186;2022-08-25T03:16:15;100426.69;;;18.36;72.91
58064;BME280;43851;55.856;37.186;2022-08-25T03:18:41;100434.28;;;18.93;70.55
58064;BME280;43851;55.856;37.186;2022-08-25T03:21:09;100435.56;;;19.50;68.76
58064;BME280;43851;55.856;37.186;2022-08-25T03:23:36;100436.06;;;19.99;66.24
58064;BME280;43851;55.856;37.186;2022-08-25T03:26:02;100432.16;;;19.90;65.68
58064;BME280;43851;55.856;37.186;2022-08-25T03:28:47;100437.19;;;20.44;64.06
58064;BME280;43851;55.856;37.186;2022-08-25T03:31:13;100441.09;;;20.82;62.89
58064;BME280;43851;55.856;37.186;2022-08-25T03:33:38;100433.16;;;21.09;62.08
58064;BME280;43851;55.856;37.186;2022-08-25T03:36:06;100436.94;;;21.48;60.40
58064;BME280;43851;55.856;37.186;2022-08-25T03:38:33;100434.91;;;21.77;59.39
58064;BME280;43851;55.856;37.186;2022-08-25T03:40:59;100440.66;;;22.30;58.51
58064;BME280;43851;55.856;37.186;2022-08-25T03:43:26;100437.59;;;22.81;56.71
58064;BME280;43851;55.856;37.186;2022-08-25T03:45:52;100426.63;;;23.25;55.31
58064;BME280;43851;55.856;37.186;2022-08-25T03:48:17;100437.13;;;23.69;53.76
58064;BME280;43851;55.856;37.186;2022-08-25T03:50:46;100437.00;;;24.07;53.20
58064;BME280;43851;55.856;37.186;2022-08-25T03:53:13;100433.47;;;24.06;52.83
58064;BME280;43851;55.856;37.186;2022-08-25T03:55:40;100431.59;;;24.17;51.96
58064;BME280;43851;55.856;37.186;2022-08-25T03:58:06;100426.00;;;24.91;50.70
58064;BME280;43851;55.856;37.186;2022-08-25T04:00:32;100433.53;;;25.25;48.75
58064;BME280;43851;55.856;37.186;2022-08-25T04:02:58;100426.19;;;25.35;48.53
58064;BME280;43851;55.856;37.186;2022-08-25T04:05:24;100425.81;;;25.73;48.22
58064;BME280;43851;55.856;37.186;2022-08-25T04:07:50;100435.19;;;26.01;48.27
58064;BME280;43851;55.856;37.186;2022-08-25T04:10:15;100438.47;;;25.93;48.01
58064;BME280;43851;55.856;37.186;2022-08-25T04:12:41;100434.59;;;26.15;47.76
58064;BME280;43851;55.856;37.186;2022-08-25T04:15:08;100432.41;;;26.17;48.22
58064;BME280;43851;55.856;37.186;2022-08-25T04:17:37;100425.09;;;26.86;46.52
58064;BME280;43851;55.856;37.186;2022-08-25T04:20:04;100421.97;;;27.76;44.96
58064;BME280;43851;55.856;37.186;2022-08-25T04:22:30;100424.28;;;28.44;42.34
58064;BME280;43851;55.856;37.186;2022-08-25T04:24:57;100415.47;;;27.96;43.12
58064;BME280;43851;55.856;37.186;2022-08-25T04:27:24;100415.13;;;28.54;42.97
58064;BME280;43851;55.856;37.186;2022-08-25T04:29:50;100417.94;;;28.68;42.90
58064;BME280;43851;55.856;37.186;2022-08-25T04:32:15;100415.38;;;29.05;42.50
58064;BME280;43851;55.856;37.186;2022-08-25T04:34:41;100414.81;;;29.22;42.45
58064;BME280;43851;55.856;37.186;2022-08-25T04:37:08;100412.88;;;28.61;43.65
58064;BME280;43851;55.856;37.186;2022-08-25T04:39:34;100414.78;;;28.61;44.21
58064;BME280;43851;55.856;37.186;2022-08-25T04:42:00;100413.66;;;27.67;45.67
58064;BME280;43851;55.856;37.186;2022-08-25T04:44:28;100412.22;;;27.50;46.48
58064;BME280;43851;55.856;37.186;2022-08-25T04:46:54;100406.94;;;27.35;46.28
58064;BME280;43851;55.856;37.186;2022-08-25T04:49:20;100406.78;;;27.69;45.68
58064;BME280;43851;55.856;37.186;2022-08-25T04:51:46;100402.13;;;27.94;45.29
58064;BME280;43851;55.856;37.186;2022-08-25T04:54:14;100406.22;;;27.91;45.30
58064;BME280;43851;55.856;37.186;2022-08-25T04:56:47;100400.78;;;27.91;44.53
58064;BME280;43851;55.856;37.186;2022-08-25T04:59:14;100407.47;;;29.03;42.42
58064;BME280;43851;55.856;37.186;2022-08-25T05:01:41;100405.53;;;29.23;41.24
58064;BME280;43851;55.856;37.186;2022-08-25T05:04:10;100402.56;;;29.33;39.99
58064;BME280;43851;55.856;37.186;2022-08-25T05:06:36;100409.06;;;29.51;39.22
58064;BME280;43851;55.856;37.186;2022-08-25T05:09:03;100402.94;;;29.68;39.35
58064;BME280;43851;55.856;37.186;2022-08-25T05:11:29;100403.47;;;29.70;39.24
58064;BME280;43851;55.856;37.186;2022-08-25T05:13:56;100407.41;;;29.78;39.20
58064;BME280;43851;55.856;37.186;2022-08-25T05:16:24;100400.56;;;29.52;39.84
58064;BME280;43851;55.856;37.186;2022-08-25T05:18:50;100397.69;;;29.16;39.40
58064;BME280;43851;55.856;37.186;2022-08-25T05:21:23;100400.72;;;29.14;39.46
58064;BME280;43851;55.856;37.186;2022-08-25T05:23:49;100389.69;;;29.06;39.39
58064;BME280;43851;55.856;37.186;2022-08-25T05:26:19;100403.91;;;28.75;40.04
58064;BME280;43851;55.856;37.186;2022-08-25T05:28:47;100406.53;;;28.47;40.54
58064;BME280;43851;55.856;37.186;2022-08-25T05:31:14;100397.25;;;27.91;41.96
58064;BME280;43851;55.856;37.186;2022-08-25T05:33:40;100380.44;;;27.84;41.89
58064;BME280;43851;55.856;37.186;2022-08-25T05:36:08;100388.09;;;27.82;41.94
58064;BME280;43851;55.856;37.186;2022-08-25T05:38:36;100389.53;;;27.55;41.30
58064;BME280;43851;55.856;37.186;2022-08-25T05:41:05;100385.66;;;27.61;41.72
58064;BME280;43851;55.856;37.186;2022-08-25T05:43:32;100389.91;;;27.48;41.31
58064;BME280;43851;55.856;37.186;2022-08-25T05:45:58;100393.66;;;27.28;41.46
58064;BME280;43851;55.856;37.186;2022-08-25T05:48:25;100389.88;;;27.00;42.11
58064;BME280;43851;55.856;37.186;2022-08-25T05:50:53;100385.53;;;26.99;42.00
58064;BME280;43851;55.856;37.186;2022-08-25T05:53:19;100373.78;;;27.04;42.67
58064;BME280;43851;55.856;37.186;2022-08-25T05:55:46;100392.22;;;27.12;41.99
58064;BME280;43851;55.856;37.186;2022-08-25T05:58:12;100385.22;;;27.00;42.21
58064;BME280;43851;55.856;37.186;2022-08-25T06:00:38;100383.28;;;27.06;42.37
58064;BME280;43851;55.856;37.186;2022-08-25T06:03:04;100385.38;;;27.14;42.50
58064;BME280;43851;55.856;37.186;2022-08-25T06:05:31;100382.41;;;27.11;42.22
58064;BME280;43851;55.856;37.186;2022-08-25T06:07:57;100385.13;;;27.11;42.51
58064;BME280;43851;55.856;37.186;2022-08-25T06:10:24;100385.84;;;27.22;42.57
58064;BME280;43851;55.856;37.186;2022-08-25T06:12:50;100389.81;;;27.05;42.22
58064;BME280;43851;55.856;37.186;2022-08-25T06:15:19;100384.91;;;27.07;42.59
58064;BME280;43851;55.856;37.186;2022-08-25T06:17:46;100391.63;;;27.15;42.17
58064;BME280;43851;55.856;37.186;2022-08-25T06:20:20;100388.59;;;27.16;41.46
58064;BME280;43851;55.856;37.186;2022-08-25T06:22:47;100389.44;;;27.17;41.84
58064;BME280;43851;55.856;37.186;2022-08-25T06:25:14;100374.41;;;27.19;41.41
58064;BME280;43851;55.856;37.186;2022-08-25T06:27:40;100379.75;;;27.30;41.14
58064;BME280;43851;55.856;37.186;2022-08-25T06:30:09;100381.94;;;27.33;41.49
58064;BME280;43851;55.856;37.186;2022-08-25T06:32:38;100375.38;;;27.34;41.12
58064;BME280;43851;55.856;37.186;2022-08-25T06:35:05;100385.25;;;27.49;40.76
58064;BME280;43851;55.856;37.186;2022-08-25T06:37:33;100377.91;;;27.49;41.32
58064;BME280;43851;55.856;37.186;2022-08-25T06:39:59;100379.63;;;27.64;40.39
58064;BME280;43851;55.856;37.186;2022-08-25T06:42:25;100380.38;;;27.70;40.48
58064;BME280;43851;55.856;37.186;2022-08-25T06:44:55;100375.28;;;27.82;40.29
58064;BME280;43851;55.856;37.186;2022-08-25T06:47:23;100376.91;;;27.83;39.95
58064;BME280;43851;55.856;37.186;2022-08-25T06:49:51;100377.44;;;27.85;39.64
58064;BME280;43851;55.856;37.186;2022-08-25T06:52:18;100379.81;;;27.92;39.85
58064;BME280;43851;55.856;37.186;2022-08-25T06:54:49;100367.88;;;27.88;39.72
58064;BME280;43851;55.856;37.186;2022-08-25T06:57:26;100369.94;;;27.96;39.73
58064;BME280;43851;55.856;37.186;2022-08-25T07:00:01;100368.97;;;28.06;39.60
58064;BME280;43851;55.856;37.186;2022-08-25T07:02:30;100375.69;;;28.14;39.47
58064;BME280;43851;55.856;37.186;2022-08-25T07:05:04;100369.94;;;28.15;38.78
58064;BME280;43851;55.856;37.186;2022-08-25T07:07:32;100363.88;;;28.18;38.82
58064;BME280;43851;55.856;37.186;2022-08-25T07:10:01;100367.66;;;28.22;38.81
58064;BME280;43851;55.856;37.186;2022-08-25T07:12:34;100367.94;;;28.21;38.36
58064;BME280;43851;55.856;37.186;2022-08-25T07:15:10;100372.94;;;28.33;38.85
58064;BME280;43851;55.856;37.186;2022-08-25T07:17:46;100360.03;;;28.38;38.82
58064;BME280;43851;55.856;37.186;2022-08-25T07:20:17;100367.81;;;28.45;38.96
58064;BME280;43851;55.856;37.186;2022-08-25T07:22:47;100363.81;;;28.56;38.36
58064;BME280;43851;55.856;37.186;2022-08-25T07:25:18;100361.25;;;28.65;37.74
58064;BME280;43851;55.856;37.186;2022-08-25T07:27:48;100350.81;;;28.67;38.19
58064;BME280;43851;55.856;37.186;2022-08-25T07:30:16;100352.69;;;28.86;37.51
58064;BME280;43851;55.856;37.186;2022-08-25T07:32:42;100357.22;;;28.90;37.77
58064;BME280;43851;55.856;37.186;2022-08-25T07:35:09;100359.47;;;28.88;37.51
58064;BME280;43851;55.856;37.186;2022-08-25T07:37:46;100358.34;;;28.89;36.56
58064;BME280;43851;55.856;37.186;2022-08-25T07:40:16;100351.66;;;28.95;36.86
58064;BME280;43851;55.856;37.186;2022-08-25T07:42:43;100363.63;;;29.13;36.63
58064;BME280;43851;55.856;37.186;2022-08-25T07:45:11;100360.78;;;29.19;35.91
58064;BME280;43851;55.856;37.186;2022-08-25T07:47:38;100354.13;;;29.25;35.92
58064;BME280;43851;55.856;37.186;2022-08-25T07:50:08;100358.56;;;29.34;35.56
58064;BME280;43851;55.856;37.186;2022-08-25T07:52:49;100358.28;;;29.36;35.84
58064;BME280;43851;55.856;37.186;2022-08-25T07:55:48;100345.09;;;29.38;35.66
58064;BME280;43851;55.856;37.186;2022-08-25T07:58:18;100348.97;;;29.51;35.86
58064;BME280;43851;55.856;37.186;2022-08-25T08:00:50;100349.94;;;29.55;35.31
58064;BME280;43851;55.856;37.186;2022-08-25T08:03:19;100348.13;;;29.50;35.39
58064;BME280;43851;55.856;37.186;2022-08-25T08:05:46;100338.09;;;29.60;35.66
58064;BME280;43851;55.856;37.186;2022-08-25T08:08:21;100339.09;;;29.64;34.71
58064;BME280;43851;55.856;37.186;2022-08-25T08:10:54;100336.06;;;29.79;34.66
58064;BME280;43851;55.856;37.186;2022-08-25T08:13:23;100335.94;;;29.70;35.22
58064;BME280;43851;55.856;37.186;2022-08-25T08:15:57;100329.25;;;29.91;34.58
58064;BME280;43851;55.856;37.186;2022-08-25T08:18:30;100330.22;;;29.95;33.25
58064;BME280;43851;55.856;37.186;2022-08-25T08:21:10;100326.75;;;30.03;32.93
58064;BME280;43851;55.856;37.186;2022-08-25T08:23:42;100327.44;;;30.09;33.34
58064;BME280;43851;55.856;37.186;2022-08-25T08:26:11;100328.63;;;30.16;32.79
58064;BME280;43851;55.856;37.186;2022-08-25T08:28:51;100315.31;;;30.23;32.54
58064;BME280;43851;55.856;37.186;2022-08-25T08:31:22;100312.00;;;30.35;32.70
58064;BME280;43851;55.856;37.186;2022-08-25T08:33:50;100307.56;;;30.39;32.42
58064;BME280;43851;55.856;37.186;2022-08-25T08:36:21;100312.41;;;30.43;32.44
58064;BME280;43851;55.856;37.186;2022-08-25T08:38:48;100311.31;;;30.52;31.77
58064;BME280;43851;55.856;37.186;2022-08-25T08:41:28;100309.28;;;30.58;31.47
58064;BME280;43851;55.856;37.186;2022-08-25T08:49:42;100299.97;;;30.68;31.02
58064;BME280;43851;55.856;37.186;2022-08-25T08:52:16;100302.34;;;30.61;31.34
58064;BME280;43851;55.856;37.186;2022-08-25T08:54:45;100291.13;;;30.71;29.98
58064;BME280;43851;55.856;37.186;2022-08-25T08:57:17;100304.84;;;30.80;29.23
58064;BME280;43851;55.856;37.186;2022-08-25T08:59:55;100295.19;;;30.82;29.50
58064;BME280;43851;55.856;37.186;2022-08-25T09:02:32;100294.00;;;30.97;29.66
58064;BME280;43851;55.856;37.186;2022-08-25T09:05:10;100294.16;;;31.01;29.26
58064;BME280;43851;55.856;37.186;2022-08-25T09:07:56;100287.19;;;30.94;28.78
58064;BME280;43851;55.856;37.186;2022-08-25T09:10:25;100292.22;;;31.01;28.51
58064;BME280;43851;55.856;37.186;2022-08-25T09:15:54;100279.09;;;30.81;27.80
58064;BME280;43851;55.856;37.186;2022-08-25T09:21:56;100276.19;;;30.77;28.72
58064;BME280;43851;55.856;37.186;2022-08-25T09:24:36;100278.16;;;30.94;28.89
58064;BME280;43851;55.856;37.186;2022-08-25T09:30:10;100279.19;;;31.16;27.94
58064;BME280;43851;55.856;37.186;2022-08-25T09:32:51;100264.56;;;31.38;27.46
58064;BME280;43851;55.856;37.186;2022-08-25T09:35:22;100275.53;;;31.38;27.64
58064;BME280;43851;55.856;37.186;2022-08-25T09:37:58;100262.00;;;31.50;27.65
58064;BME280;43851;55.856;37.186;2022-08-25T09:40:26;100272.34;;;31.71;27.88
58064;BME280;43851;55.856;37.186;2022-08-25T09:42:54;100260.09;;;31.68;27.02
58064;BME280;43851;55.856;37.186;2022-08-25T09:45:35;100248.31;;;31.85;26.83
58064;BME280;43851;55.856;37.186;2022-08-25T09:48:19;100269.75;;;31.65;27.32
58064;BME280;43851;55.856;37.186;2022-08-25T09:50:46;100253.00;;;31.67;27.03
58064;BME280;43851;55.856;37.186;2022-08-25T09:53:13;100262.78;;;31.94;26.27
58064;BME280;43851;55.856;37.186;2022-08-25T09:55:42;100261.34;;;32.06;26.61
58064;BME280;43851;55.856;37.186;2022-08-25T09:58:22;100237.81;;;31.78;26.14
58064;BME280;43851;55.856;37.186;2022-08-25T10:01:02;100249.44;;;31.84;27.69
58064;BME280;43851;55.856;37.186;2022-08-25T10:03:30;100236.34;;;31.98;27.00
58064;BME280;43851;55.856;37.186;2022-08-25T10:08:38;100242.00;;;32.11;26.27
58064;BME280;43851;55.856;37.186;2022-08-25T10:11:11;100239.09;;;31.90;26.92
58064;BME280;43851;55.856;37.186;2022-08-25T10:13:43;100243.13;;;32.01;26.68
58064;BME280;43851;55.856;37.186;2022-08-25T10:16:29;100238.28;;;32.15;26.79
58064;BME280;43851;55.856;37.186;2022-08-25T10:21:33;100238.53;;;32.31;26.68
58064;BME280;43851;55.856;37.186;2022-08-25T10:24:02;100236.81;;;32.00;26.12
58064;BME280;43851;55.856;37.186;2022-08-25T10:34:52;100222.94;;;31.97;26.78
58064;BME280;43851;55.856;37.186;2022-08-25T10:37:46;100224.25;;;31.99;26.74
58064;BME280;43851;55.856;37.186;2022-08-25T10:41:24;100220.97;;;32.24;26.14
58064;BME280;43851;55.856;37.186;2022-08-25T10:46:24;100213.38;;;32.29;26.30
58064;BME280;43851;55.856;37.186;2022-08-25T11:08:04;100188.38;;;31.57;27.06
58064;BME280;43851;55.856;37.186;2022-08-25T11:10:39;100188.19;;;31.45;27.89
58064;BME280;43851;55.856;37.186;2022-08-25T11:13:14;100193.81;;;31.40;28.11
58064;BME280;43851;55.856;37.186;2022-08-25T11:18:14;100182.03;;;31.48;27.89
58064;BME280;43851;55.856;37.186;2022-08-25T11:21:09;100170.94;;;31.44;28.01
58064;BME280;43851;55.856;37.186;2022-08-25T11:23:49;100170.44;;;31.51;27.89
58064;BME280;43851;55.856;37.186;2022-08-25T11:26:21;100171.56;;;31.67;27.12
58064;BME280;43851;55.856;37.186;2022-08-25T11:29:02;100174.16;;;31.64;27.21
58064;BME280;43851;55.856;37.186;2022-08-25T11:31:29;100168.53;;;31.60;28.03
58064;BME280;43851;55.856;37.186;2022-08-25T11:33:56;100158.16;;;31.75;27.11
58064;BME280;43851;55.856;37.186;2022-08-25T11:36:33;100164.72;;;31.91;27.79
58064;BME280;43851;55.856;37.186;2022-08-25T11:39:16;100154.75;;;31.87;27.57
58064;BME280;43851;55.856;37.186;2022-08-25T11:45:10;100159.38;;;32.03;27.34
58064;BME280;43851;55.856;37.186;2022-08-25T11:50:34;100147.84;;;31.72;27.79
58064;BME280;43851;55.856;37.186;2022-08-25T11:53:21;100153.69;;;31.61;27.78
58064;BME280;43851;55.856;37.186;2022-08-25T11:55:51;100147.72;;;31.51;28.24
58064;BME280;43851;55.856;37.186;2022-08-25T12:00:54;100152.59;;;31.54;28.34
58064;BME280;43851;55.856;37.186;2022-08-25T12:11:54;100139.34;;;31.38;27.96
58064;BME280;43851;55.856;37.186;2022-08-25T12:27:31;100125.19;;;32.01;26.87
58064;BME280;43851;55.856;37.186;2022-08-25T12:38:35;100109.34;;;32.15;26.64
58064;BME280;43851;55.856;37.186;2022-08-25T12:41:09;100115.34;;;32.09;26.97
58064;BME280;43851;55.856;37.186;2022-08-25T12:43:40;100114.69;;;32.12;26.94
58064;BME280;43851;55.856;37.186;2022-08-25T12:56:53;100079.41;;;31.28;28.03
58064;BME280;43851;55.856;37.186;2022-08-25T12:59:42;100105.78;;;31.50;27.61
58064;BME280;43851;55.856;37.186;2022-08-25T13:05:09;100094.03;;;31.49;27.44
58064;BME280;43851;55.856;37.186;2022-08-25T13:11:36;100087.28;;;31.56;27.62
58064;BME280;43851;55.856;37.186;2022-08-25T13:14:11;100085.84;;;31.58;27.38
58064;BME280;43851;55.856;37.186;2022-08-25T13:16:52;100083.41;;;31.48;27.46
58064;BME280;43851;55.856;37.186;2022-08-25T13:19:19;100073.41;;;31.52;27.84
58064;BME280;43851;55.856;37.186;2022-08-25T13:21:46;100071.16;;;31.54;28.22
58064;BME280;43851;55.856;37.186;2022-08-25T13:24:28;100078.38;;;31.67;28.24
58064;BME280;43851;55.856;37.186;2022-08-25T13:26:58;100077.25;;;31.69;27.79
58064;BME280;43851;55.856;37.186;2022-08-25T13:29:32;100077.25;;;31.69;27.87
58064;BME280;43851;55.856;37.186;2022-08-25T13:32:07;100071.44;;;31.61;27.49
58064;BME280;43851;55.856;37.186;2022-08-25T13:34:39;100062.44;;;31.61;28.46
58064;BME280;43851;55.856;37.186;2022-08-25T13:37:07;100064.25;;;31.57;27.93
58064;BME280;43851;55.856;37.186;2022-08-25T13:40:13;100063.13;;;31.40;28.32
58064;BME280;43851;55.856;37.186;2022-08-25T13:42:46;100052.63;;;31.42;27.76
58064;BME280;43851;55.856;37.186;2022-08-25T13:45:16;100057.16;;;31.38;27.67
58064;BME280;43851;55.856;37.186;2022-08-25T13:47:43;100058.94;;;31.43;28.03
58064;BME280;43851;55.856;37.186;2022-08-25T13:57:58;100050.56;;;31.22;27.98
58064;BME280;43851;55.856;37.186;2022-08-25T14:00:31;100053.66;;;31.20;27.56
58064;BME280;43851;55.856;37.186;2022-08-25T14:03:00;100051.72;;;31.21;26.98
58064;BME280;43851;55.856;37.186;2022-08-25T14:05:37;100049.47;;;31.14;27.96
58064;BME280;43851;55.856;37.186;2022-08-25T14:08:06;100041.09;;;31.10;28.24
58064;BME280;43851;55.856;37.186;2022-08-25T14:13:09;100044.00;;;31.05;28.10
58064;BME280;43851;55.856;37.186;2022-08-25T14:15:39;100001.16;;;30.74;28.06
58064;BME280;43851;55.856;37.186;2022-08-25T14:18:28;100040.31;;;31.01;28.12
58064;BME280;43851;55.856;37.186;2022-08-25T14:20:55;100027.41;;;30.84;28.55
58064;BME280;43851;55.856;37.186;2022-08-25T14:23:24;100041.59;;;30.86;28.49
58064;BME280;43851;55.856;37.186;2022-08-25T14:25:53;100023.09;;;30.66;28.75
58064;BME280;43851;55.856;37.186;2022-08-25T14:28:22;100037.88;;;30.65;28.63
58064;BME280;43851;55.856;37.186;2022-08-25T14:30:51;100028.06;;;30.55;29.18
58064;BME280;43851;55.856;37.186;2022-08-25T14:33:21;100019.84;;;30.46;29.19
58064;BME280;43851;55.856;37.186;2022-08-25T14:35:50;100030.94;;;30.50;29.54
58064;BME280;43851;55.856;37.186;2022-08-25T14:38:18;100032.06;;;30.40;29.41
58064;BME280;43851;55.856;37.186;2022-08-25T14:40:44;100025.59;;;30.27;29.88
58064;BME280;43851;55.856;37.186;2022-08-25T14:43:11;100018.34;;;30.14;29.08
58064;BME280;43851;55.856;37.186;2022-08-25T14:45:39;100011.88;;;30.10;29.37
58064;BME280;43851;55.856;37.186;2022-08-25T14:48:08;100021.38;;;30.12;29.45
58064;BME280;43851;55.856;37.186;2022-08-25T14:50:45;100005.75;;;30.04;29.99
58064;BME280;43851;55.856;37.186;2022-08-25T14:53:11;100014.59;;;30.01;29.98
58064;BME280;43851;55.856;37.186;2022-08-25T14:55:38;100004.44;;;29.93;29.79
58064;BME280;43851;55.856;37.186;2022-08-25T14:58:07;100000.25;;;29.86;30.17
58064;BME280;43851;55.856;37.186;2022-08-25T15:00:40;100009.25;;;29.87;29.99